createdAt,value
2022-11-12T00:01:23.916Z,114.73
2022-11-12T00:03:52.200Z,119.13
2022-11-12T00:06:23.634Z,106.40
2022-11-12T00:08:51.866Z,111.20
2022-11-12T00:11:20.169Z,109.77
2022-11-12T00:13:48.412Z,103.33
2022-11-12T00:16:17.821Z,103.40
2022-11-12T00:18:48.321Z,103.23
2022-11-12T00:21:16.547Z,110.87
2022-11-12T00:23:44.886Z,112.37
2022-11-12T00:26:13.138Z,101.93
2022-11-12T00:28:41.456Z,101.83
2022-11-12T00:31:11.724Z,96.17
2022-11-12T00:33:43.966Z,96.77
2022-11-12T00:36:13.780Z,108.50
2022-11-12T00:38:42.115Z,96.33
2022-11-12T00:41:10.440Z,96.33
2022-11-12T00:43:38.681Z,95.17
2022-11-12T00:46:07.009Z,93.57
2022-11-12T00:48:35.297Z,93.87
2022-11-12T00:51:05.175Z,94.63
2022-11-12T00:53:34.826Z,100.13
2022-11-12T00:56:04.270Z,96.37
2022-11-12T00:58:34.151Z,102.67
2022-11-12T01:01:08.305Z,107.80
2022-11-12T01:03:37.626Z,105.50
2022-11-12T01:06:07.178Z,108.07
2022-11-12T01:08:37.269Z,100.03
2022-11-12T01:11:10.716Z,106.73
2022-11-12T01:13:44.155Z,113.43
2022-11-12T01:16:15.306Z,129.63
2022-11-12T01:18:44.244Z,179.97
2022-11-12T01:21:13.487Z,620.50
2022-11-12T01:23:43.772Z,118.00
2022-11-12T01:26:14.384Z,108.63
2022-11-12T01:28:43.427Z,115.83
2022-11-12T01:31:13.916Z,110.57
2022-11-12T01:33:42.683Z,87.77
2022-11-12T01:36:11.394Z,102.73
2022-11-12T01:38:41.374Z,97.47
2022-11-12T01:41:16.042Z,108.17
2022-11-12T01:43:44.486Z,103.40
2022-11-12T01:46:19.823Z,97.97
2022-11-12T01:48:53.334Z,103.37
2022-11-12T01:51:27.470Z,137.07
2022-11-12T01:53:59.962Z,110.97
2022-11-12T01:56:31.576Z,120.30
2022-11-12T01:59:04.050Z,142.60
2022-11-12T02:01:32.915Z,653.00
2022-11-12T02:04:01.212Z,124.83
2022-11-12T02:06:29.594Z,166.57
2022-11-12T02:08:58.675Z,124.83
2022-11-12T02:11:27.073Z,116.80
2022-11-12T02:13:58.750Z,133.37
2022-11-12T02:16:30.292Z,151.13
2022-11-12T02:18:58.561Z,402.60
2022-11-12T02:21:29.213Z,101.07
2022-11-12T02:24:05.554Z,379.03
2022-11-12T02:26:36.609Z,262.13
2022-11-12T02:29:05.278Z,130.17
2022-11-12T02:31:33.594Z,306.57
2022-11-12T02:34:01.924Z,306.33
2022-11-12T02:36:32.193Z,381.43
2022-11-12T02:39:00.620Z,240.40
2022-11-12T02:41:29.164Z,331.00
2022-11-12T02:43:57.382Z,462.60
2022-11-12T02:46:25.707Z,325.67
2022-11-12T02:48:53.964Z,353.67
2022-11-12T02:51:22.262Z,277.63
2022-11-12T02:53:51.918Z,418.43
2022-11-12T02:56:20.194Z,222.07
2022-11-12T02:58:48.680Z,251.53
2022-11-12T03:01:19.070Z,263.77
2022-11-12T03:03:47.490Z,178.07
2022-11-12T03:06:16.025Z,343.57
2022-11-12T03:08:44.464Z,206.47
2022-11-12T03:11:16.283Z,151.40
2022-11-12T03:13:44.704Z,158.70
2022-11-12T03:16:13.132Z,263.93
2022-11-12T03:18:41.375Z,108.47
2022-11-12T03:21:09.626Z,98.67
2022-11-12T03:23:38.119Z,234.80
2022-11-12T03:26:06.686Z,128.20
2022-11-12T03:28:36.379Z,140.20
2022-11-12T03:31:04.682Z,125.37
2022-11-12T03:33:32.962Z,113.30
2022-11-12T03:36:01.439Z,133.87
2022-11-12T03:38:29.969Z,96.13
2022-11-12T03:40:58.401Z,152.87
2022-11-12T03:43:26.870Z,234.43
2022-11-12T03:45:56.523Z,123.27
2022-11-12T03:48:25.158Z,116.67
2022-11-12T03:50:53.553Z,97.87
2022-11-12T03:53:21.879Z,96.97
2022-11-12T03:55:50.143Z,102.37
2022-11-12T03:58:18.475Z,108.47
2022-11-12T04:00:46.913Z,147.17
2022-11-12T04:03:16.811Z,146.90
2022-11-12T04:06:02.567Z,95.07
2022-11-12T04:08:39.710Z,176.30
2022-11-12T04:11:12.648Z,198.40
2022-11-12T04:13:42.074Z,448.37
2022-11-12T04:16:29.975Z,544.80
2022-11-12T04:19:18.573Z,348.60
2022-11-12T04:21:51.892Z,187.50
2022-11-12T04:24:39.067Z,140.53
2022-11-12T04:27:08.546Z,110.67
2022-11-12T04:29:54.109Z,143.63
2022-11-12T04:32:23.016Z,105.67
2022-11-12T04:34:52.734Z,292.60
2022-11-12T04:37:23.611Z,163.47
2022-11-12T04:39:52.389Z,227.00
2022-11-12T04:42:38.546Z,326.93
2022-11-12T04:45:11.790Z,118.27
2022-11-12T04:47:43.875Z,128.50
2022-11-12T04:50:16.992Z,123.70
2022-11-12T04:52:45.669Z,105.90
2022-11-12T04:55:13.973Z,99.60
2022-11-12T04:57:42.249Z,113.63
2022-11-12T05:00:13.082Z,116.60
2022-11-12T05:02:41.388Z,130.97
2022-11-12T05:05:10.377Z,127.37
2022-11-12T05:07:40.008Z,130.83
2022-11-12T05:10:09.459Z,118.57
2022-11-12T05:12:40.808Z,133.73
2022-11-12T05:15:11.725Z,144.73
2022-11-12T05:17:43.835Z,154.07
2022-11-12T05:20:13.028Z,164.70
2022-11-12T05:22:59.139Z,210.43
2022-11-12T05:25:33.039Z,263.47
2022-11-12T05:28:01.336Z,563.07
2022-11-12T05:30:29.635Z,122.13
2022-11-12T05:32:58.495Z,353.17
2022-11-12T05:35:26.791Z,329.63
2022-11-12T05:37:56.517Z,345.70
2022-11-12T05:40:24.832Z,206.77
2022-11-12T05:42:53.047Z,130.57
2022-11-12T05:45:21.353Z,477.37
2022-11-12T05:47:49.652Z,550.27
2022-11-12T05:50:18.053Z,103.30
2022-11-12T05:52:47.051Z,114.27
2022-11-12T05:55:16.961Z,168.43
2022-11-12T05:57:45.406Z,131.43
2022-11-12T06:00:14.508Z,626.17
2022-11-12T06:02:43.180Z,615.93
2022-11-12T06:05:11.920Z,160.27
2022-11-12T06:07:40.869Z,231.20
2022-11-12T06:10:10.042Z,111.40
2022-11-12T06:12:39.765Z,232.20
2022-11-12T06:15:08.921Z,243.13
2022-11-12T06:17:37.186Z,259.27
2022-11-12T06:20:06.103Z,358.53
2022-11-12T06:22:34.390Z,124.17
2022-11-12T06:25:02.768Z,125.63
2022-11-12T06:27:31.083Z,101.13
2022-11-12T06:30:01.001Z,139.27
2022-11-12T06:32:29.273Z,101.97
2022-11-12T06:34:57.691Z,128.20
2022-11-12T06:37:26.027Z,161.00
2022-11-12T06:39:56.605Z,150.57
2022-11-12T06:42:24.946Z,100.73
2022-11-12T06:44:53.177Z,88.57
2022-11-12T06:47:22.822Z,87.63
2022-11-12T06:49:51.156Z,114.43
2022-11-12T06:52:19.472Z,134.73
2022-11-12T06:54:47.850Z,140.77
2022-11-12T06:57:16.091Z,103.47
2022-11-12T06:59:44.597Z,124.27
2022-11-12T07:02:13.763Z,131.83
2022-11-12T07:04:43.511Z,403.60
2022-11-12T07:07:11.918Z,359.30
2022-11-12T07:09:40.289Z,470.07
2022-11-12T07:12:08.971Z,91.17
2022-11-12T07:14:37.347Z,85.20
2022-11-12T07:17:05.737Z,83.03
2022-11-12T07:19:33.985Z,95.57
2022-11-12T07:22:03.821Z,79.07
2022-11-12T07:24:32.286Z,82.03
2022-11-12T07:27:00.549Z,95.60
2022-11-12T07:29:46.472Z,87.37
2022-11-12T07:32:16.173Z,105.33
2022-11-12T07:34:44.426Z,86.77
2022-11-12T07:37:14.384Z,83.03
2022-11-12T07:39:42.719Z,80.37
2022-11-12T07:42:10.999Z,85.47
2022-11-12T07:44:39.295Z,83.87
2022-11-12T07:47:07.625Z,89.10
2022-11-12T07:49:35.979Z,83.37
2022-11-12T07:52:04.332Z,92.97
2022-11-12T07:54:34.074Z,96.63
2022-11-12T07:57:02.360Z,116.60
2022-11-12T07:59:30.704Z,110.83
2022-11-12T08:02:01.308Z,117.87
2022-11-12T08:04:29.691Z,116.77
2022-11-12T08:06:58.122Z,131.40
2022-11-12T08:09:26.629Z,124.73
2022-11-12T08:11:57.001Z,136.40
2022-11-12T08:14:25.862Z,162.70
2022-11-12T08:16:54.162Z,179.93
2022-11-12T08:19:22.426Z,193.97
2022-11-12T08:21:50.703Z,183.07
2022-11-12T08:24:19.101Z,186.03
2022-11-12T08:26:47.330Z,193.17
2022-11-12T08:29:16.983Z,207.67
2022-11-12T08:31:47.048Z,231.77
2022-11-12T08:34:20.104Z,198.93
2022-11-12T08:36:51.188Z,213.77
2022-11-12T08:39:19.509Z,197.35
2022-11-12T08:41:47.860Z,223.47
2022-11-12T08:44:17.582Z,209.93
2022-11-12T08:46:45.876Z,214.63
2022-11-12T08:49:14.342Z,223.45
2022-11-12T08:51:42.654Z,230.23
2022-11-12T08:54:10.994Z,229.07
2022-11-12T08:56:42.297Z,217.95
2022-11-12T08:59:10.507Z,230.73
2022-11-12T09:01:40.287Z,173.48
2022-11-12T09:04:08.636Z,160.48
2022-11-12T09:06:36.998Z,130.88
2022-11-12T09:09:05.400Z,126.20
2022-11-12T09:11:33.645Z,121.20
2022-11-12T09:14:02.043Z,128.20
2022-11-12T09:16:30.660Z,110.53
2022-11-12T09:19:00.326Z,121.50
2022-11-12T09:21:28.706Z,116.00
2022-11-12T09:23:57.074Z,118.03
2022-11-12T09:26:25.476Z,104.75
2022-11-12T09:28:54.987Z,91.00
2022-11-12T09:31:25.729Z,96.18
2022-11-12T09:33:53.987Z,92.03
2022-11-12T09:36:23.641Z,88.97
2022-11-12T09:38:54.328Z,86.03
2022-11-12T09:41:28.216Z,83.68
2022-11-12T09:44:01.175Z,87.13
2022-11-12T09:46:36.991Z,79.90
2022-11-12T09:49:14.246Z,79.43
2022-11-12T09:51:52.451Z,79.88
2022-11-12T09:54:25.388Z,81.72
2022-11-12T09:56:55.086Z,82.10
2022-11-12T09:59:25.036Z,74.47
2022-11-12T10:02:01.360Z,77.15
2022-11-12T10:04:44.188Z,73.57
2022-11-12T10:07:25.800Z,67.20
2022-11-12T10:10:06.439Z,66.88
2022-11-12T10:12:48.030Z,61.20
2022-11-12T10:15:53.597Z,60.00
2022-11-12T10:18:37.314Z,66.78
2022-11-12T10:21:16.102Z,60.28
2022-11-12T10:23:48.110Z,58.92
2022-11-12T10:26:17.891Z,56.38
2022-11-12T10:28:49.694Z,52.40
2022-11-12T10:31:20.317Z,56.50
2022-11-12T10:33:49.366Z,55.25
2022-11-12T10:36:24.972Z,49.38
2022-11-12T10:38:57.798Z,54.15
2022-11-12T10:41:28.228Z,54.90
2022-11-12T10:43:59.485Z,52.05
2022-11-12T10:46:29.805Z,42.58
2022-11-12T10:49:03.661Z,45.97
2022-11-12T10:51:34.535Z,46.15
2022-11-12T10:56:57.592Z,39.42
2022-11-12T10:59:26.549Z,46.22
2022-11-12T11:02:00.158Z,41.03
2022-11-12T11:04:33.792Z,47.00
2022-11-12T11:07:06.940Z,51.92
2022-11-12T11:09:36.016Z,52.95
2022-11-12T11:12:07.067Z,48.08
2022-11-12T11:14:38.275Z,46.08
2022-11-12T11:17:09.379Z,49.97
2022-11-12T11:19:42.137Z,46.30
2022-11-12T11:22:29.824Z,59.25
2022-11-12T11:25:27.813Z,67.82
2022-11-12T11:28:08.577Z,68.57
2022-11-12T11:30:48.969Z,88.80
2022-11-12T11:33:31.923Z,100.93
2022-11-12T11:36:12.622Z,101.35
2022-11-12T11:38:57.662Z,113.63
2022-11-12T11:41:47.002Z,103.97
2022-11-12T11:44:29.923Z,98.43
2022-11-12T11:47:09.485Z,87.53
2022-11-12T11:50:28.386Z,62.70
2022-11-12T11:53:12.082Z,44.95
2022-11-12T11:55:56.445Z,39.35
2022-11-12T11:58:56.560Z,34.47
2022-11-12T12:01:31.657Z,37.65
2022-11-12T12:04:20.011Z,34.35
2022-11-12T12:07:02.146Z,35.67
2022-11-12T12:09:44.315Z,27.27
2022-11-12T12:12:26.441Z,28.50
2022-11-12T12:15:07.607Z,23.10
2022-11-12T12:17:49.728Z,21.77
2022-11-12T12:20:22.603Z,16.55
2022-11-12T12:22:54.085Z,37.35
2022-11-12T12:25:26.687Z,33.15
2022-11-12T12:28:01.793Z,28.65
2022-11-12T12:30:32.663Z,19.13
2022-11-12T12:33:10.436Z,23.80
2022-11-12T12:35:46.081Z,20.95
2022-11-12T12:38:22.809Z,16.67
2022-11-12T12:41:01.865Z,22.05
2022-11-12T12:43:36.304Z,24.17
2022-11-12T12:46:06.024Z,23.00
2022-11-12T12:48:37.903Z,16.77
2022-11-12T12:51:06.297Z,20.30
2022-11-12T12:53:36.642Z,20.48
2022-11-12T12:56:06.829Z,17.67
2022-11-12T12:58:44.342Z,9.85
2022-11-12T13:01:29.697Z,12.45
2022-11-12T13:04:02.352Z,8.50
2022-11-12T13:06:35.546Z,8.27
2022-11-12T13:09:06.378Z,8.60
2022-11-12T13:12:15.205Z,7.28
2022-11-12T13:14:59.379Z,11.57
2022-11-12T13:18:07.365Z,7.40
2022-11-12T13:20:40.808Z,7.72
2022-11-12T13:23:31.795Z,6.50
2022-11-12T13:26:33.744Z,7.13
2022-11-12T13:29:25.779Z,9.15
2022-11-12T13:32:29.135Z,7.18
2022-11-12T13:35:31.192Z,7.40
2022-11-12T13:38:04.276Z,8.07
2022-11-12T13:40:42.467Z,7.28
2022-11-12T13:43:20.573Z,10.05
2022-11-12T13:45:51.796Z,8.73
2022-11-12T13:48:26.569Z,8.45
2022-11-12T13:50:58.493Z,9.15
2022-11-12T13:53:31.749Z,9.95
2022-11-12T13:56:00.958Z,9.85
2022-11-12T13:58:31.527Z,8.43
2022-11-12T14:01:02.133Z,9.98
2022-11-12T14:03:33.947Z,10.95
2022-11-12T14:06:06.813Z,8.57
2022-11-12T14:09:04.262Z,7.38
2022-11-12T14:11:53.720Z,9.05
2022-11-12T14:14:31.331Z,8.40
2022-11-12T14:17:10.667Z,8.23
2022-11-12T14:20:24.977Z,8.18
2022-11-12T14:22:54.256Z,8.00
2022-11-12T14:25:26.679Z,9.23
2022-11-12T14:27:56.248Z,8.73
2022-11-12T14:30:26.761Z,9.80
2022-11-12T14:32:59.774Z,11.05
2022-11-12T14:35:31.802Z,10.48
2022-11-12T14:38:07.517Z,8.50
2022-11-12T14:40:39.813Z,9.77
2022-11-12T14:43:22.306Z,10.98
2022-11-12T14:45:55.184Z,11.07
2022-11-12T14:48:23.800Z,12.05
2022-11-12T14:50:57.105Z,10.13
2022-11-12T14:53:33.951Z,9.13
2022-11-12T14:56:08.597Z,11.18
2022-11-12T14:58:37.236Z,11.43
2022-11-12T15:04:21.089Z,10.63
2022-11-12T15:06:56.445Z,11.15
2022-11-12T15:09:36.740Z,12.23
2022-11-12T15:12:11.209Z,9.80
2022-11-12T15:14:39.711Z,11.40
2022-11-12T15:17:08.179Z,10.07
2022-11-12T15:19:36.872Z,13.32
2022-11-12T15:22:05.737Z,15.90
2022-11-12T15:24:35.988Z,12.77
2022-11-12T15:27:37.039Z,12.30
2022-11-12T15:30:23.693Z,10.27
2022-11-12T15:33:08.039Z,12.55
2022-11-12T15:35:43.812Z,22.98
2022-11-12T15:38:18.899Z,21.65
2022-11-12T15:40:50.102Z,22.38
2022-11-12T15:43:27.081Z,12.57
2022-11-12T15:45:57.033Z,13.02
2022-11-12T15:48:25.665Z,11.85
2022-11-12T15:50:55.274Z,20.15
2022-11-12T15:53:23.663Z,15.50
2022-11-12T15:55:53.652Z,15.05
2022-11-12T15:58:32.330Z,15.20
2022-11-12T16:01:00.892Z,10.77
2022-11-12T16:03:29.431Z,11.82
2022-11-12T16:05:58.073Z,9.48
2022-11-12T16:08:26.382Z,11.30
2022-11-12T16:10:57.145Z,16.05
2022-11-12T16:13:30.133Z,13.05
2022-11-12T16:15:58.870Z,11.57
2022-11-12T16:18:27.211Z,14.55
2022-11-12T16:20:55.442Z,14.48
2022-11-12T16:23:23.786Z,13.48
2022-11-12T16:25:52.292Z,13.55
2022-11-12T16:28:20.817Z,18.35
2022-11-12T16:30:50.953Z,19.48
2022-11-12T16:33:19.279Z,16.05
2022-11-12T16:35:47.640Z,15.63
2022-11-12T16:38:17.927Z,18.67
2022-11-12T16:40:46.982Z,15.38
2022-11-12T16:43:15.246Z,20.70
2022-11-12T16:45:45.671Z,16.48
2022-11-12T16:48:19.015Z,17.92
2022-11-12T16:50:47.347Z,14.07
2022-11-12T16:53:15.734Z,18.33
2022-11-12T16:55:45.232Z,18.23
2022-11-12T16:58:15.106Z,17.83
2022-11-12T17:00:45.257Z,21.35
2022-11-12T17:03:16.023Z,23.77
2022-11-12T17:05:44.338Z,22.42
2022-11-12T17:08:14.561Z,23.33
2022-11-12T17:10:42.932Z,27.73
2022-11-12T17:13:13.359Z,24.42
2022-11-12T17:15:41.848Z,18.15
2022-11-12T17:18:10.364Z,21.85
2022-11-12T17:20:40.062Z,21.98
2022-11-12T17:23:08.265Z,22.40
2022-11-12T17:25:36.718Z,27.23
2022-11-12T17:28:05.156Z,26.90
2022-11-12T17:30:33.400Z,29.98
2022-11-12T17:33:01.973Z,29.63
2022-11-12T17:35:30.231Z,28.35
2022-11-12T17:37:59.947Z,35.15
2022-11-12T17:40:28.366Z,40.22
2022-11-12T17:42:56.800Z,38.58
2022-11-12T17:45:25.284Z,36.63
2022-11-12T17:47:53.674Z,38.60
2022-11-12T17:50:21.962Z,43.78
2022-11-12T17:52:50.219Z,42.28
2022-11-12T17:55:19.938Z,42.15
2022-11-12T17:57:50.118Z,39.80
2022-11-12T18:00:19.266Z,42.75
2022-11-12T18:02:47.559Z,43.72
2022-11-12T18:05:15.901Z,48.25
2022-11-12T18:07:44.246Z,50.38
2022-11-12T18:10:16.950Z,52.78
2022-11-12T18:12:49.000Z,48.80
2022-11-12T18:15:17.394Z,50.95
2022-11-12T18:17:45.628Z,45.90
2022-11-12T18:20:14.013Z,45.55
2022-11-12T18:22:44.997Z,51.33
2022-11-12T18:25:13.905Z,47.60
2022-11-12T18:27:42.400Z,46.40
2022-11-12T18:30:18.940Z,47.83
2022-11-12T18:32:47.746Z,50.88
2022-11-12T18:35:16.392Z,59.15
2022-11-12T18:37:44.678Z,55.67
2022-11-12T18:40:15.712Z,52.90
2022-11-12T18:42:44.151Z,54.80
2022-11-12T18:45:14.349Z,56.33
2022-11-12T18:47:42.614Z,59.03
2022-11-12T18:50:11.150Z,51.55
2022-11-12T18:52:39.397Z,53.75
2022-11-12T18:55:11.126Z,55.17
2022-11-12T18:57:42.008Z,66.45
2022-11-12T19:00:11.668Z,64.25
2022-11-12T19:02:43.618Z,58.95
2022-11-12T19:05:11.843Z,69.18
2022-11-12T19:07:40.133Z,67.47
2022-11-12T19:10:14.785Z,72.40
2022-11-12T19:12:43.680Z,66.10
2022-11-12T19:15:12.583Z,75.70
2022-11-12T19:17:44.481Z,79.72
2022-11-12T19:20:13.041Z,76.63
2022-11-12T19:22:42.394Z,75.15
2022-11-12T19:25:10.933Z,76.50
2022-11-12T19:27:39.133Z,80.85
2022-11-12T19:30:08.580Z,87.85
2022-11-12T19:32:36.958Z,79.75
2022-11-12T19:35:07.534Z,80.10
2022-11-12T19:37:35.779Z,83.43
2022-11-12T19:40:05.612Z,76.25
2022-11-12T19:42:33.922Z,69.22
2022-11-12T19:45:03.000Z,73.50
2022-11-12T19:47:31.333Z,78.13
2022-11-12T19:49:59.623Z,66.28
2022-11-12T19:52:29.308Z,79.07
2022-11-12T19:54:57.629Z,83.25
2022-11-12T19:57:29.150Z,85.57
2022-11-12T19:59:57.383Z,94.00
2022-11-12T20:02:25.762Z,91.90
2022-11-12T20:04:54.148Z,99.25
2022-11-12T20:07:22.690Z,101.80
2022-11-12T20:09:56.526Z,95.00
2022-11-12T20:12:29.900Z,91.70
2022-11-12T20:14:58.188Z,95.90
2022-11-12T20:17:26.494Z,96.30
2022-11-12T20:19:54.783Z,112.53
2022-11-12T20:22:26.643Z,105.85
2022-11-12T20:24:59.029Z,107.00
2022-11-12T20:27:27.416Z,97.28
2022-11-12T20:29:55.728Z,97.00
2022-11-12T20:32:24.303Z,106.15
2022-11-12T20:34:52.807Z,119.35
2022-11-12T20:37:22.692Z,125.70
2022-11-12T20:39:50.956Z,134.82
2022-11-12T20:42:20.649Z,109.53
2022-11-12T20:44:48.930Z,106.78
2022-11-12T20:47:17.204Z,101.78
2022-11-12T20:49:45.488Z,102.30
2022-11-12T20:52:13.746Z,105.15
2022-11-12T20:54:42.001Z,105.63
2022-11-12T20:57:10.382Z,105.82
2022-11-12T20:59:41.334Z,103.13
2022-11-12T21:02:11.320Z,100.20
2022-11-12T21:04:42.223Z,104.45
2022-11-12T21:07:10.556Z,98.32
2022-11-12T21:09:38.904Z,98.85
2022-11-12T21:12:07.819Z,101.05
2022-11-12T21:14:36.136Z,100.00
2022-11-12T21:17:05.945Z,102.50
2022-11-12T21:19:34.154Z,94.13
2022-11-12T21:22:02.500Z,99.38
2022-11-12T21:24:30.750Z,105.10
2022-11-12T21:26:59.082Z,101.47
2022-11-12T21:29:27.383Z,98.75
2022-11-12T21:31:55.683Z,101.28
2022-11-12T21:34:25.370Z,105.25
2022-11-12T21:36:53.612Z,100.93
2022-11-12T21:39:21.961Z,105.18
2022-11-12T21:41:50.213Z,104.35
2022-11-12T21:44:18.464Z,109.22
2022-11-12T21:46:46.824Z,108.05
2022-11-12T21:49:15.111Z,113.00
2022-11-12T21:51:44.795Z,106.50
2022-11-12T21:54:15.364Z,106.97
2022-11-12T21:56:45.155Z,117.85
2022-11-12T21:59:13.391Z,112.13
2022-11-12T22:01:42.940Z,118.50
2022-11-12T22:04:17.039Z,116.37
2022-11-12T22:06:48.000Z,140.87
2022-11-12T22:09:16.514Z,116.17
2022-11-12T22:11:44.870Z,114.60
2022-11-12T22:14:13.098Z,124.73
2022-11-12T22:16:41.447Z,125.17
2022-11-12T22:19:10.030Z,139.53
2022-11-12T22:21:40.025Z,124.17
2022-11-12T22:24:10.962Z,115.33
2022-11-12T22:26:39.620Z,133.13
2022-11-12T22:29:07.891Z,114.77
2022-11-12T22:31:36.193Z,111.17
2022-11-12T22:34:04.741Z,111.70
2022-11-12T22:36:33.048Z,122.35
2022-11-12T22:39:01.459Z,141.18
2022-11-12T22:41:32.690Z,116.30
2022-11-12T22:44:03.092Z,245.00
2022-11-12T22:46:34.272Z,255.67
2022-11-12T22:49:02.851Z,352.60
2022-11-12T22:51:32.881Z,300.43
2022-11-12T22:54:02.675Z,227.30
2022-11-12T22:56:34.283Z,104.77
2022-11-12T22:59:04.862Z,415.00
2022-11-12T23:01:36.857Z,102.82
2022-11-12T23:04:08.180Z,95.37
2022-11-12T23:06:37.454Z,97.40
2022-11-12T23:09:06.617Z,110.30
2022-11-12T23:11:39.205Z,98.43
2022-11-12T23:14:09.806Z,96.00
2022-11-12T23:16:38.130Z,94.27
2022-11-12T23:19:06.998Z,89.20
2022-11-12T23:21:35.271Z,98.57
2022-11-12T23:24:03.510Z,100.80
2022-11-12T23:26:32.336Z,110.27
2022-11-12T23:29:02.842Z,131.33
2022-11-12T23:31:32.289Z,258.93
2022-11-12T23:34:01.347Z,168.97
2022-11-12T23:36:30.524Z,136.83
2022-11-12T23:38:59.696Z,129.80
2022-11-12T23:41:29.142Z,137.07
2022-11-12T23:44:01.443Z,165.23
2022-11-12T23:46:29.808Z,287.57
2022-11-12T23:48:58.232Z,137.10
2022-11-12T23:51:26.618Z,197.50
2022-11-12T23:53:57.348Z,183.43
2022-11-12T23:56:25.732Z,156.90
2022-11-12T23:58:55.563Z,128.43
